sensor_id;sensor_type;location;lat;lon;timestamp;pressure;altitude;pressure_sealevel;temperature;humidity
70943;BME280;59154;51.970;5.650;2023-04-01T00:00:04;99000;;;12.2811;95.2
70943;BME280;59154;51.970;5.650;2023-04-01T00:05:03;99000;;;12.42859;94.4
70943;BME280;59154;51.970;5.650;2023-04-01T00:10:03;99000;;;12.48453;94.4
70943;BME280;59154;51.970;5.650;2023-04-01T00:15:04;99000;;;12.55573;94.0
70943;BME280;59154;51.970;5.650;2023-04-01T00:20:04;99000;;;12.56082;93.7
70943;BME280;59154;51.970;5.650;2023-04-01T00:25:03;99000;;;12.48453;93.9
70943;BME280;59154;51.970;5.650;2023-04-01T00:30:04;99000;;;12.52013;93.6
70943;BME280;59154;51.970;5.650;2023-04-01T00:35:03;99000;;;12.55065;93.5
70943;BME280;59154;51.970;5.650;2023-04-01T00:40:19;99000;;;12.57099;93.3
70943;BME280;59154;51.970;5.650;2023-04-01T00:45:26;99000;;;12.46419;93.9
70943;BME280;59154;51.970;5.650;2023-04-01T00:50:03;99000;;;12.50996;93.7
70943;BME280;59154;51.970;5.650;2023-04-01T00:55:05;99000;;;12.55573;93.7
70943;BME280;59154;51.970;5.650;2023-04-01T01:00:05;99000;;;12.57607;93.8
70943;BME280;59154;51.970;5.650;2023-04-01T01:05:02;99000;;;12.48453;94.7
70943;BME280;59154;51.970;5.650;2023-04-01T01:10:09;99000;;;12.36756;94.8
70943;BME280;59154;51.970;5.650;2023-04-01T01:15:09;99000;;;12.36756;94.9
70943;BME280;59154;51.970;5.650;2023-04-01T01:20:16;99000;;;12.40825;94.9
70943;BME280;59154;51.970;5.650;2023-04-01T01:25:11;99000;;;12.32179;95.1
70943;BME280;59154;51.970;5.650;2023-04-01T01:30:23;99000;;;12.27093;94.9
70943;BME280;59154;51.970;5.650;2023-04-01T01:35:12;99000;;;12.24042;94.2
70943;BME280;59154;51.970;5.650;2023-04-01T01:40:06;99000;;;12.14888;94.0
70943;BME280;59154;51.970;5.650;2023-04-01T01:45:04;99000;;;12.15905;93.4
70943;BME280;59154;51.970;5.650;2023-04-01T01:50:03;99100;;;12.22516;93.0
70943;BME280;59154;51.970;5.650;2023-04-01T01:55:03;99000;;;12.15905;93.1
70943;BME280;59154;51.970;5.650;2023-04-01T02:00:07;99100;;;12.15396;93.0
70943;BME280;59154;51.970;5.650;2023-04-01T02:05:04;99100;;;12.08276;93.4
70943;BME280;59154;51.970;5.650;2023-04-01T02:10:03;99100;;;12.09802;93.4
70943;BME280;59154;51.970;5.650;2023-04-01T02:15:07;99100;;;12.00648;94.1
70943;BME280;59154;51.970;5.650;2023-04-01T02:20:06;99100;;;12.14888;94.1
70943;BME280;59154;51.970;5.650;2023-04-01T02:25:06;99100;;;11.95053;94.7
70943;BME280;59154;51.970;5.650;2023-04-01T02:30:04;99100;;;11.97088;94.6
70943;BME280;59154;51.970;5.650;2023-04-01T02:35:02;99100;;;12.04208;94.6
70943;BME280;59154;51.970;5.650;2023-04-01T02:40:06;99100;;;12.05225;94.7
70943;BME280;59154;51.970;5.650;2023-04-01T02:45:03;99100;;;12.04208;94.9
70943;BME280;59154;51.970;5.650;2023-04-01T02:50:04;99100;;;12.05733;94.8
70943;BME280;59154;51.970;5.650;2023-04-01T02:55:04;99100;;;11.9963;94.7
70943;BME280;59154;51.970;5.650;2023-04-01T03:00:04;99100;;;12.09293;94.2
70943;BME280;59154;51.970;5.650;2023-04-01T03:05:03;99100;;;12.04716;94.1
70943;BME280;59154;51.970;5.650;2023-04-01T03:10:02;99100;;;11.97596;94.2
70943;BME280;59154;51.970;5.650;2023-04-01T03:15:03;99100;;;11.87425;94.3
70943;BME280;59154;51.970;5.650;2023-04-01T03:20:04;99100;;;11.92511;94.3
70943;BME280;59154;51.970;5.650;2023-04-01T03:25:03;99100;;;11.95053;94.3
70943;BME280;59154;51.970;5.650;2023-04-01T03:30:04;99100;;;11.90985;94.2
70943;BME280;59154;51.970;5.650;2023-04-01T03:35:03;99100;;;11.83865;94.3
70943;BME280;59154;51.970;5.650;2023-04-01T03:40:04;99100;;;11.92511;94.1
70943;BME280;59154;51.970;5.650;2023-04-01T03:45:04;99100;;;11.87933;94.5
70943;BME280;59154;51.970;5.650;2023-04-01T03:50:03;99100;;;11.81322;94.5
70943;BME280;59154;51.970;5.650;2023-04-01T03:55:03;99100;;;11.92002;94.3
70943;BME280;59154;51.970;5.650;2023-04-01T04:00:05;99100;;;11.79796;94.7
70943;BME280;59154;51.970;5.650;2023-04-01T04:05:03;99100;;;11.95053;94.0
70943;BME280;59154;51.970;5.650;2023-04-01T04:10:04;99100;;;11.89968;94.1
70943;BME280;59154;51.970;5.650;2023-04-01T04:15:03;99100;;;11.76745;94.8
70943;BME280;59154;51.970;5.650;2023-04-01T04:20:04;99100;;;11.79288;94.6
70943;BME280;59154;51.970;5.650;2023-04-01T04:25:03;99100;;;11.76745;95.4
70943;BME280;59154;51.970;5.650;2023-04-01T04:30:05;99100;;;11.79288;95.2
70943;BME280;59154;51.970;5.650;2023-04-01T04:35:03;99100;;;11.67591;95.7
70943;BME280;59154;51.970;5.650;2023-04-01T04:40:04;99100;;;11.63522;96.2
70943;BME280;59154;51.970;5.650;2023-04-01T04:45:03;99100;;;11.78779;95.7
70943;BME280;59154;51.970;5.650;2023-04-01T04:50:02;99100;;;11.81831;95.9
70943;BME280;59154;51.970;5.650;2023-04-01T04:55:03;99100;;;11.83356;96.0
70943;BME280;59154;51.970;5.650;2023-04-01T05:00:05;99200;;;11.75219;96.1
70943;BME280;59154;51.970;5.650;2023-04-01T05:05:03;99200;;;11.90985;95.8
70943;BME280;59154;51.970;5.650;2023-04-01T05:10:04;99200;;;11.98613;95.6
70943;BME280;59154;51.970;5.650;2023-04-01T05:15:04;99200;;;12.03699;95.4
70943;BME280;59154;51.970;5.650;2023-04-01T05:20:04;99200;;;11.98613;95.7
70943;BME280;59154;51.970;5.650;2023-04-01T05:25:02;99200;;;11.90476;96.6
70943;BME280;59154;51.970;5.650;2023-04-01T05:30:03;99200;;;11.96579;96.7
70943;BME280;59154;51.970;5.650;2023-04-01T05:35:03;99200;;;11.95053;96.7
70943;BME280;59154;51.970;5.650;2023-04-01T05:40:05;99200;;;11.90985;96.8
70943;BME280;59154;51.970;5.650;2023-04-01T05:45:02;99200;;;11.98105;97.1
70943;BME280;59154;51.970;5.650;2023-04-01T05:50:03;99200;;;11.90985;97.5
70943;BME280;59154;51.970;5.650;2023-04-01T05:55:02;99200;;;11.80305;98.1
70943;BME280;59154;51.970;5.650;2023-04-01T06:00:04;99200;;;11.9607;97.5
70943;BME280;59154;51.970;5.650;2023-04-01T06:05:13;99200;;;11.93019;98.0
70943;BME280;59154;51.970;5.650;2023-04-01T06:10:10;99300;;;11.92511;97.8
70943;BME280;59154;51.970;5.650;2023-04-01T06:15:12;99300;;;11.84373;98.4
70943;BME280;59154;51.970;5.650;2023-04-01T06:20:11;99300;;;11.95053;98.2
70943;BME280;59154;51.970;5.650;2023-04-01T06:25:14;99300;;;11.93528;97.8
70943;BME280;59154;51.970;5.650;2023-04-01T06:30:17;99300;;;11.83865;98.7
70943;BME280;59154;51.970;5.650;2023-04-01T06:35:25;99300;;;12.05733;98.1
70943;BME280;59154;51.970;5.650;2023-04-01T06:40:17;99300;;;12.26585;96.9
70943;BME280;59154;51.970;5.650;2023-04-01T06:45:14;99300;;;12.18956;96.4
70943;BME280;59154;51.970;5.650;2023-04-01T06:50:08;99300;;;12.25567;96.3
70943;BME280;59154;51.970;5.650;2023-04-01T06:55:17;99300;;;12.34213;96.1
70943;BME280;59154;51.970;5.650;2023-04-01T07:00:11;99300;;;12.1387;96.7
70943;BME280;59154;51.970;5.650;2023-04-01T07:05:04;99300;;;12.17939;96.7
70943;BME280;59154;51.970;5.650;2023-04-01T07:10:06;99300;;;12.12853;97.5
70943;BME280;59154;51.970;5.650;2023-04-01T07:15:09;99300;;;12.24042;96.8
70943;BME280;59154;51.970;5.650;2023-04-01T07:20:10;99400;;;12.37265;96.0
70943;BME280;59154;51.970;5.650;2023-04-01T07:25:08;99400;;;12.37773;95.9
70943;BME280;59154;51.970;5.650;2023-04-01T07:30:06;99400;;;12.43876;95.8
70943;BME280;59154;51.970;5.650;2023-04-01T07:35:10;99400;;;12.26585;96.5
70943;BME280;59154;51.970;5.650;2023-04-01T07:40:13;99400;;;12.2455;96.8
70943;BME280;59154;51.970;5.650;2023-04-01T07:45:09;99400;;;12.23025;96.5
70943;BME280;59154;51.970;5.650;2023-04-01T07:50:11;99400;;;11.87425;97.3
70943;BME280;59154;51.970;5.650;2023-04-01T07:55:07;99400;;;11.93528;98.3
70943;BME280;59154;51.970;5.650;2023-04-01T08:00:09;99400;;;11.99122;97.5
70943;BME280;59154;51.970;5.650;2023-04-01T08:05:09;99400;;;11.93528;97.6
70943;BME280;59154;51.970;5.650;2023-04-01T08:10:10;99400;;;12.00648;97.2
70943;BME280;59154;51.970;5.650;2023-04-01T08:15:10;99500;;;11.99122;97.4
70943;BME280;59154;51.970;5.650;2023-04-01T08:20:15;99500;;;12.23025;96.8
70943;BME280;59154;51.970;5.650;2023-04-01T08:25:05;99500;;;12.28619;96.8
70943;BME280;59154;51.970;5.650;2023-04-01T08:30:15;99500;;;12.27602;96.2
70943;BME280;59154;51.970;5.650;2023-04-01T08:35:09;99500;;;12.39807;96.4
70943;BME280;59154;51.970;5.650;2023-04-01T08:40:22;99500;;;12.27602;96.9
70943;BME280;59154;51.970;5.650;2023-04-01T08:45:15;99500;;;12.62185;96.0
70943;BME280;59154;51.970;5.650;2023-04-01T08:50:26;99500;;;12.39299;96.7
70943;BME280;59154;51.970;5.650;2023-04-01T08:55:20;99500;;;12.50487;97.1
70943;BME280;59154;51.970;5.650;2023-04-01T09:00:12;99500;;;12.4591;96.3
70943;BME280;59154;51.970;5.650;2023-04-01T09:05:21;99500;;;12.35739;97.0
70943;BME280;59154;51.970;5.650;2023-04-01T09:10:19;99500;;;12.46419;96.3
70943;BME280;59154;51.970;5.650;2023-04-01T09:15:19;99500;;;12.52013;95.9
70943;BME280;59154;51.970;5.650;2023-04-01T09:20:17;99500;;;12.67779;95.2
70943;BME280;59154;51.970;5.650;2023-04-01T09:25:46;99600;;;12.69305;95.0
70943;BME280;59154;51.970;5.650;2023-04-01T09:30:19;99600;;;12.70322;94.3
70943;BME280;59154;51.970;5.650;2023-04-01T09:35:14;99600;;;12.88122;94.0
70943;BME280;59154;51.970;5.650;2023-04-01T09:40:14;99600;;;12.97276;94.0
70943;BME280;59154;51.970;5.650;2023-04-01T09:45:09;99600;;;12.6371;94.6
70943;BME280;59154;51.970;5.650;2023-04-01T09:50:42;99600;;;13.00327;93.0
70943;BME280;59154;51.970;5.650;2023-04-01T09:55:19;99600;;;13.05413;93.2
70943;BME280;59154;51.970;5.650;2023-04-01T10:00:15;99600;;;13.16093;92.6
70943;BME280;59154;51.970;5.650;2023-04-01T10:20:26;99600;;;13.89328;89.0
70943;BME280;59154;51.970;5.650;2023-04-01T10:25:15;99600;;;14.42221;87.2
70943;BME280;59154;51.970;5.650;2023-04-01T10:30:54;99600;;;14.23912;87.8
70943;BME280;59154;51.970;5.650;2023-04-01T10:35:21;99600;;;14.74261;86.1
70943;BME280;59154;51.970;5.650;2023-04-01T10:40:20;99600;;;14.75278;85.6
70943;BME280;59154;51.970;5.650;2023-04-01T10:45:21;99600;;;14.98165;83.7
70943;BME280;59154;51.970;5.650;2023-04-01T10:50:50;99600;;;14.8189;85.0
70943;BME280;59154;51.970;5.650;2023-04-01T10:55:20;99600;;;15.32749;83.4
70943;BME280;59154;51.970;5.650;2023-04-01T11:00:18;99600;;;15.33766;82.6
70943;BME280;59154;51.970;5.650;2023-04-01T11:05:59;99600;;;15.70893;80.2
70943;BME280;59154;51.970;5.650;2023-04-01T11:10:54;99600;;;15.06811;82.9
70943;BME280;59154;51.970;5.650;2023-04-01T11:20:20;99600;;;14.28998;87.7
70943;BME280;59154;51.970;5.650;2023-04-01T11:25:18;99600;;;14.51375;85.0
70943;BME280;59154;51.970;5.650;2023-04-01T11:30:14;99700;;;14.36118;85.9
70943;BME280;59154;51.970;5.650;2023-04-01T11:35:22;99700;;;14.45272;86.6
70943;BME280;59154;51.970;5.650;2023-04-01T11:40:11;99700;;;14.59512;86.1
70943;BME280;59154;51.970;5.650;2023-04-01T11:45:16;99700;;;14.58495;84.0
70943;BME280;59154;51.970;5.650;2023-04-01T11:50:16;99700;;;14.64598;84.8
70943;BME280;59154;51.970;5.650;2023-04-01T11:55:15;99700;;;14.23912;85.5
70943;BME280;59154;51.970;5.650;2023-04-01T12:00:21;99700;;;13.63391;89.6
70943;BME280;59154;51.970;5.650;2023-04-01T12:05:22;99700;;;14.2798;88.4
70943;BME280;59154;51.970;5.650;2023-04-01T12:10:14;99700;;;13.90854;88.7
70943;BME280;59154;51.970;5.650;2023-04-01T12:15:17;99700;;;14.1018;88.6
70943;BME280;59154;51.970;5.650;2023-04-01T12:20:22;99700;;;14.173;88.0
70943;BME280;59154;51.970;5.650;2023-04-01T12:25:14;99700;;;14.2798;86.0
70943;BME280;59154;51.970;5.650;2023-04-01T12:30:18;99800;;;14.14757;86.1
70943;BME280;59154;51.970;5.650;2023-04-01T12:35:16;99800;;;14.07637;86.6
70943;BME280;59154;51.970;5.650;2023-04-01T12:40:20;99800;;;14.14249;87.0
70943;BME280;59154;51.970;5.650;2023-04-01T12:45:17;99800;;;14.15774;86.8
70943;BME280;59154;51.970;5.650;2023-04-01T12:50:19;99800;;;14.07637;87.7
70943;BME280;59154;51.970;5.650;2023-04-01T12:55:25;99800;;;14.13232;87.0
70943;BME280;59154;51.970;5.650;2023-04-01T13:00:14;99800;;;14.22895;86.7
70943;BME280;59154;51.970;5.650;2023-04-01T13:05:39;99800;;;14.6053;84.6
70943;BME280;59154;51.970;5.650;2023-04-01T13:10:09;99800;;;14.55952;85.0
70943;BME280;59154;51.970;5.650;2023-04-01T13:15:17;99800;;;14.64598;85.0
70943;BME280;59154;51.970;5.650;2023-04-01T13:20:06;99800;;;14.40186;86.4
70943;BME280;59154;51.970;5.650;2023-04-01T13:25:06;99800;;;14.68667;85.7
70943;BME280;59154;51.970;5.650;2023-04-01T13:30:20;99800;;;14.34083;87.3
70943;BME280;59154;51.970;5.650;2023-04-01T13:35:15;99800;;;14.13232;89.0
70943;BME280;59154;51.970;5.650;2023-04-01T13:40:30;99800;;;13.817;89.5
70943;BME280;59154;51.970;5.650;2023-04-01T13:45:09;99800;;;13.89837;89.5
70943;BME280;59154;51.970;5.650;2023-04-01T13:50:48;99800;;;13.97466;89.8
70943;BME280;59154;51.970;5.650;2023-04-01T13:55:20;99800;;;13.98483;90.6
70943;BME280;59154;51.970;5.650;2023-04-01T14:00:15;99800;;;14.17809;90.5
70943;BME280;59154;51.970;5.650;2023-04-01T14:05:13;99900;;;13.94414;91.0
70943;BME280;59154;51.970;5.650;2023-04-01T14:10:07;99900;;;14.14757;90.2
70943;BME280;59154;51.970;5.650;2023-04-01T14:15:18;99900;;;14.06111;90.5
70943;BME280;59154;51.970;5.650;2023-04-01T14:20:20;99900;;;14.11197;90.4
70943;BME280;59154;51.970;5.650;2023-04-01T14:25:22;99900;;;14.23912;90.7
70943;BME280;59154;51.970;5.650;2023-04-01T14:30:24;99900;;;14.0306;90.8
70943;BME280;59154;51.970;5.650;2023-04-01T14:35:19;99900;;;13.60848;91.8
70943;BME280;59154;51.970;5.650;2023-04-01T14:40:20;99900;;;13.61865;92.8
70943;BME280;59154;51.970;5.650;2023-04-01T14:45:18;99900;;;13.8526;92.2
70943;BME280;59154;51.970;5.650;2023-04-01T14:50:06;99900;;;13.94414;91.1
70943;BME280;59154;51.970;5.650;2023-04-01T14:55:20;99900;;;13.9594;90.7
70943;BME280;59154;51.970;5.650;2023-04-01T15:00:13;99900;;;14.25946;90.4
70943;BME280;59154;51.970;5.650;2023-04-01T15:05:11;99900;;;13.995;92.0
70943;BME280;59154;51.970;5.650;2023-04-01T15:10:09;99900;;;14.09671;91.4
70943;BME280;59154;51.970;5.650;2023-04-01T15:15:16;100000;;;13.87294;92.2
70943;BME280;59154;51.970;5.650;2023-04-01T15:20:17;100000;;;13.97974;91.6
70943;BME280;59154;51.970;5.650;2023-04-01T15:25:21;100000;;;13.82717;92.0
70943;BME280;59154;51.970;5.650;2023-04-01T15:30:17;100000;;;14.04586;91.5
70943;BME280;59154;51.970;5.650;2023-04-01T15:35:13;100000;;;13.70511;91.5
70943;BME280;59154;51.970;5.650;2023-04-01T15:40:14;100000;;;13.31351;94.0
70943;BME280;59154;51.970;5.650;2023-04-01T15:45:13;100000;;;13.41522;92.6
70943;BME280;59154;51.970;5.650;2023-04-01T15:50:28;100000;;;13.67968;91.6
70943;BME280;59154;51.970;5.650;2023-04-01T15:55:19;100000;;;13.35928;93.5
70943;BME280;59154;51.970;5.650;2023-04-01T16:00:24;100000;;;13.72037;92.5
70943;BME280;59154;51.970;5.650;2023-04-01T16:05:09;100100;;;13.20162;91.1
70943;BME280;59154;51.970;5.650;2023-04-01T16:10:13;100100;;;13.29825;91.2
70943;BME280;59154;51.970;5.650;2023-04-01T16:15:13;100100;;;13.28299;91.6
70943;BME280;59154;51.970;5.650;2023-04-01T16:20:17;100100;;;12.9219;92.5
70943;BME280;59154;51.970;5.650;2023-04-01T16:25:17;100100;;;13.11516;91.5
70943;BME280;59154;51.970;5.650;2023-04-01T16:30:25;100100;;;12.8863;91.6
70943;BME280;59154;51.970;5.650;2023-04-01T16:35:20;100100;;;12.87105;91.7
70943;BME280;59154;51.970;5.650;2023-04-01T16:40:14;100100;;;13.12025;91.7
70943;BME280;59154;51.970;5.650;2023-04-01T16:45:17;100100;;;12.8863;91.8
70943;BME280;59154;51.970;5.650;2023-04-01T16:50:12;100100;;;13.03887;91.0
70943;BME280;59154;51.970;5.650;2023-04-01T16:55:15;100200;;;12.97785;91.2
70943;BME280;59154;51.970;5.650;2023-04-01T17:00:16;100200;;;12.83545;91.1
70943;BME280;59154;51.970;5.650;2023-04-01T17:05:06;100200;;;12.57099;91.8
70943;BME280;59154;51.970;5.650;2023-04-01T17:10:33;100200;;;12.65745;92.4
70943;BME280;59154;51.970;5.650;2023-04-01T17:15:10;100200;;;12.73882;91.9
70943;BME280;59154;51.970;5.650;2023-04-01T17:20:14;100200;;;12.61167;91.5
70943;BME280;59154;51.970;5.650;2023-04-01T17:25:14;100200;;;12.03699;93.4
70943;BME280;59154;51.970;5.650;2023-04-01T17:30:13;100200;;;12.2455;92.0
70943;BME280;59154;51.970;5.650;2023-04-01T17:35:05;100300;;;12.01665;92.8
70943;BME280;59154;51.970;5.650;2023-04-01T17:40:44;100300;;;11.92511;92.5
70943;BME280;59154;51.970;5.650;2023-04-01T17:45:07;100300;;;12.14379;92.0
70943;BME280;59154;51.970;5.650;2023-04-01T17:50:14;100300;;;11.82339;92.7
70943;BME280;59154;51.970;5.650;2023-04-01T17:55:21;100300;;;12.0319;92.2
70943;BME280;59154;51.970;5.650;2023-04-01T18:00:16;100300;;;11.77762;93.0
70943;BME280;59154;51.970;5.650;2023-04-01T18:05:20;100300;;;11.53351;93.7
70943;BME280;59154;51.970;5.650;2023-04-01T18:10:17;100400;;;11.46231;94.1
70943;BME280;59154;51.970;5.650;2023-04-01T18:15:14;100400;;;11.57419;92.9
70943;BME280;59154;51.970;5.650;2023-04-01T18:20:18;100400;;;11.74711;91.9
70943;BME280;59154;51.970;5.650;2023-04-01T18:25:14;100400;;;11.24363;93.5
70943;BME280;59154;51.970;5.650;2023-04-01T18:30:11;100400;;;11.44705;92.0
70943;BME280;59154;51.970;5.650;2023-04-01T18:35:17;100400;;;11.60471;91.8
70943;BME280;59154;51.970;5.650;2023-04-01T18:40:13;100400;;;11.48265;92.2
70943;BME280;59154;51.970;5.650;2023-04-01T18:45:14;100400;;;11.37585;93.2
70943;BME280;59154;51.970;5.650;2023-04-01T18:50:13;100400;;;11.26397;93.2
70943;BME280;59154;51.970;5.650;2023-04-01T18:55:39;100500;;;11.07072;93.0
70943;BME280;59154;51.970;5.650;2023-04-01T19:00:08;100500;;;11.05546;93.0
70943;BME280;59154;51.970;5.650;2023-04-01T19:05:08;100500;;;11.0758;92.0
70943;BME280;59154;51.970;5.650;2023-04-01T19:10:15;100500;;;10.82152;92.2
70943;BME280;59154;51.970;5.650;2023-04-01T19:15:13;100500;;;10.64352;92.5
70943;BME280;59154;51.970;5.650;2023-04-01T19:20:09;100500;;;10.70964;92.5
70943;BME280;59154;51.970;5.650;2023-04-01T19:25:13;100500;;;10.5469;92.2
70943;BME280;59154;51.970;5.650;2023-04-01T19:30:29;100500;;;10.6181;91.9
70943;BME280;59154;51.970;5.650;2023-04-01T19:35:15;100600;;;10.71981;91.6
70943;BME280;59154;51.970;5.650;2023-04-01T19:40:17;100600;;;10.72489;91.6
70943;BME280;59154;51.970;5.650;2023-04-01T19:45:11;100600;;;10.70455;91.6
70943;BME280;59154;51.970;5.650;2023-04-01T19:50:09;100600;;;10.66895;91.4
70943;BME280;59154;51.970;5.650;2023-04-01T19:55:22;100600;;;10.41976;91.7
70943;BME280;59154;51.970;5.650;2023-04-01T20:00:12;100600;;;10.3333;92.0
70943;BME280;59154;51.970;5.650;2023-04-01T20:05:21;100600;;;10.35365;92.1
70943;BME280;59154;51.970;5.650;2023-04-01T20:10:08;100600;;;10.18074;92.7
70943;BME280;59154;51.970;5.650;2023-04-01T20:15:04;100600;;;10.0892;93.5
70943;BME280;59154;51.970;5.650;2023-04-01T20:20:18;100600;;;10.18074;92.9
70943;BME280;59154;51.970;5.650;2023-04-01T20:25:10;100700;;;10.18074;93.2
70943;BME280;59154;51.970;5.650;2023-04-01T20:30:46;100700;;;9.99257;94.0
70943;BME280;59154;51.970;5.650;2023-04-01T20:35:17;100700;;;10.11971;93.6
70943;BME280;59154;51.970;5.650;2023-04-01T20:40:37;100700;;;9.92646;93.3
70943;BME280;59154;51.970;5.650;2023-04-01T20:45:17;100700;;;9.91629;93.1
70943;BME280;59154;51.970;5.650;2023-04-01T20:50:08;100700;;;9.90612;92.8
70943;BME280;59154;51.970;5.650;2023-04-01T20:55:21;100700;;;9.79423;92.4
70943;BME280;59154;51.970;5.650;2023-04-01T21:00:51;100700;;;9.86035;91.7
70943;BME280;59154;51.970;5.650;2023-04-01T21:10:14;100700;;;10.01291;91.3
70943;BME280;59154;51.970;5.650;2023-04-01T21:15:17;100800;;;9.62132;91.6
70943;BME280;59154;51.970;5.650;2023-04-01T21:20:18;100800;;;9.6315;91.8
70943;BME280;59154;51.970;5.650;2023-04-01T21:25:20;100800;;;9.61624;92.1
70943;BME280;59154;51.970;5.650;2023-04-01T21:30:16;100800;;;9.40773;92.1
70943;BME280;59154;51.970;5.650;2023-04-01T21:35:07;100800;;;9.37722;90.9
70943;BME280;59154;51.970;5.650;2023-04-01T21:40:19;100800;;;9.40265;90.9
70943;BME280;59154;51.970;5.650;2023-04-01T21:45:13;100800;;;9.55013;90.4
70943;BME280;59154;51.970;5.650;2023-04-01T21:50:18;100800;;;9.77389;89.8
70943;BME280;59154;51.970;5.650;2023-04-01T21:55:27;100800;;;9.53996;90.7
70943;BME280;59154;51.970;5.650;2023-04-01T22:00:19;100900;;;9.25517;90.5
70943;BME280;59154;51.970;5.650;2023-04-01T22:05:07;100900;;;9.14329;90.4
70943;BME280;59154;51.970;5.650;2023-04-01T22:10:09;100900;;;9.28568;90.1
70943;BME280;59154;51.970;5.650;2023-04-01T22:15:11;100900;;;9.27551;90.2
70943;BME280;59154;51.970;5.650;2023-04-01T22:20:15;100900;;;9.48402;90.0
70943;BME280;59154;51.970;5.650;2023-04-01T22:25:07;100900;;;9.51961;89.8
70943;BME280;59154;51.970;5.650;2023-04-01T22:30:10;100900;;;9.35179;90.1
70943;BME280;59154;51.970;5.650;2023-04-01T22:35:06;100900;;;9.01106;90.6
70943;BME280;59154;51.970;5.650;2023-04-01T22:45:16;101000;;;8.81273;89.4
70943;BME280;59154;51.970;5.650;2023-04-01T22:50:08;101000;;;8.83307;90.0
70943;BME280;59154;51.970;5.650;2023-04-01T22:55:08;101000;;;8.79239;89.1
70943;BME280;59154;51.970;5.650;2023-04-01T23:00:07;101000;;;8.54828;89.6
70943;BME280;59154;51.970;5.650;2023-04-01T23:05:05;101000;;;8.77713;89.4
70943;BME280;59154;51.970;5.650;2023-04-01T23:10:06;101000;;;8.89918;89.4
70943;BME280;59154;51.970;5.650;2023-04-01T23:15:03;101000;;;9.02632;89.1
70943;BME280;59154;51.970;5.650;2023-04-01T23:20:13;101000;;;8.70593;89.8
70943;BME280;59154;51.970;5.650;2023-04-01T23:25:16;101000;;;8.67033;90.5
70943;BME280;59154;51.970;5.650;2023-04-01T23:30:04;101000;;;8.37538;90.9
70943;BME280;59154;51.970;5.650;2023-04-01T23:35:12;101000;;;8.16179;90.8
70943;BME280;59154;51.970;5.650;2023-04-01T23:40:04;101000;;;8.28892;90.9
70943;BME280;59154;51.970;5.650;2023-04-01T23:45:05;101000;;;8.32961;90.5
70943;BME280;59154;51.970;5.650;2023-04-01T23:50:06;101100;;;8.25841;90.4
70943;BME280;59154;51.970;5.650;2023-04-01T23:55:08;101100;;;8.14653;90.4
